• Join FlightAware (Why Join?)
  • Login
  • US Flag 
09:13PM EDT


 

Airport Tracker/Info


-or-


 

Live Flight TrackerFlight Track Log ✈ EJA122 ✈ 20-Sep-2013 ✈ CYUL - KPIT

Flight Track Log - Related Links

Times and Time Zones

All times are in EDT time to prevent confusion due to time zone crossing. See the EJA122 flight status page for this flight to view local times or setup timezone preferences in your user account.

Time Position Orientation Groundspeed Altitude Reporting Facility
EDT Latitude Longitude Course Direction KTS MPH feet Rate Location/Type
01:59PM 45.4667 -73.7167 189° South 60 69 100  Level Montreal Center
02:00PM 45.4167 -73.7667 215° Southwest 200 230 2,100 2,160 Climbing Montreal Center
02:01PM 45.3833 -73.8167 227° Southwest 230 265 4,500 2,400 Climbing Montreal Center
02:02PM 45.3167 -73.9000 221° Southwest 260 299 7,000 2,400 Climbing Montreal Center
02:03PM 45.2500 -73.9167 190° South 270 311 9,400 2,640 Climbing Montreal Center
02:04PM 44.7551 -74.1251 189° South  Level FlightAware Approximate
02:04PM 45.1667 -73.9500 196° South 270 311 12,300  Level Montreal Center
02:05PM 45.1000 -73.9833 199° South 280 322 14,500 2,160 Climbing Montreal Center
02:06PM 45.0167 -74.0000 188° South 290 334 16,700 2,040 Climbing Montreal Center
02:07PM 44.9500 -74.0500 208° Southwest 280 322 18,600 1,620 Climbing Montreal Center
02:08PM 44.8833 -74.1167 215° Southwest 290 334 20,000 900 Climbing Montreal Center
02:09PM 44.8167 -74.2167 227° Southwest 340 391 20,400 900 Climbing Montreal Center
02:10PM 44.7667 -74.3000 230° Southwest 350 403 21,900 1,500 Climbing Montreal Center
02:11PM 44.6833 -74.3833 215° Southwest 340 391 23,400 1,380 Climbing Montreal Center
02:12PM 44.6244 -74.4875 232° Southwest 347 399 24,700 1,260 Climbing Boston Center
02:13PM 44.5503 -74.5550 213° Southwest 334 384 25,900 1,080 Climbing Boston Center
02:14PM 44.4678 -74.6275 212° Southwest 334 384 26,900 960 Climbing Boston Center
02:15PM 44.3831 -74.6942 209° Southwest 345 397 27,900 960 Climbing Boston Center
02:16PM 44.2961 -74.7633 210° Southwest 356 410 28,900 1,020 Climbing Boston Center
02:17PM 44.2094 -74.8325 210° Southwest 361 415 30,000 960 Climbing Boston Center
02:18PM 44.1203 -74.9069 211° Southwest 371 427 30,900 840 Climbing Boston Center
02:19PM 44.0292 -74.9783 209° Southwest 376 433 31,700 780 Climbing Boston Center
02:20PM 43.9436 -75.0669 217° Southwest 381 438 32,500 780 Climbing Boston Center
02:21PM 43.8722 -75.1850 230° Southwest 387 445 33,300 720 Climbing Boston Center
02:22PM 43.8006 -75.3025 230° Southwest 398 458 34,000 300 Climbing Boston Center
02:23PM 43.7264 -75.4283 231° Southwest 410 472 34,000  Level Boston Center
02:24PM 43.6500 -75.5564 231° Southwest 424 488 34,000  Level Boston Center
02:25PM 43.5694 -75.6869 230° Southwest 442 509 34,000  Level Boston Center
02:26PM 43.4906 -75.8172 230° Southwest 447 514 34,000  Level Boston Center
02:28PM 43.3000 -76.0833 226° Southwest 450 518 34,000  Level Montreal Center
02:29PM 43.2333 -76.2000 232° Southwest 450 518 34,000  Level Montreal Center
02:30PM 43.1358 -76.3778 233° Southwest 448 516 34,000 -60 Level Cleveland Center
02:31PM 43.0547 -76.5067 229° Southwest 448 516 33,900  Descending Cleveland Center
02:32PM 42.9736 -76.6367 230° Southwest 451 519 34,000  Climbing Cleveland Center
02:33PM 42.8844 -76.7778 229° Southwest 450 518 34,000  Level Cleveland Center
02:34PM 42.8022 -76.9064 229° Southwest 451 519 34,000  Level Cleveland Center
02:35PM 42.7197 -77.0364 229° Southwest 453 521 34,000  Level Cleveland Center
02:36PM 42.6358 -77.1650 228° Southwest 453 521 34,000  Level Cleveland Center
02:37PM 42.5356 -77.3186 228° Southwest 451 519 34,000 -480 Level Cleveland Center
02:38PM 42.4511 -77.4478 228° Southwest 452 520 33,100 -1,200 Descending Cleveland Center
02:39PM 42.3683 -77.5764 229° Southwest 449 517 31,600 -1,500 Descending Cleveland Center
02:40PM 42.2847 -77.7039 228° Southwest 450 518 30,100 -780 Descending Cleveland Center
02:41PM 42.2014 -77.8311 229° Southwest 450 518 30,000 -60 Descending Cleveland Center
02:43PM 42.1167 -77.9606 229° Southwest 461 531 30,000 -120 Level Cleveland Center
02:44PM 42.0319 -78.0886 228° Southwest 458 527 29,800 -600 Descending Cleveland Center
02:45PM 41.9347 -78.2328 228° Southwest 463 533 28,800 -900 Descending Cleveland Center
02:46PM 41.8492 -78.3619 228° Southwest 468 539 28,000 -420 Descending Cleveland Center
02:47PM 41.7636 -78.4883 228° Southwest 466 536 28,000 -720 Level Cleveland Center
02:48PM 41.6594 -78.6375 227° Southwest 463 533 26,600 -1,440 Descending Cleveland Center
02:49PM 41.5711 -78.7689 228° Southwest 476 548 25,100 -1,440 Descending Cleveland Center
02:50PM 41.4889 -78.8897 228° Southwest 435 501 23,700 -1,380 Descending Cleveland Center
02:51PM 41.4100 -79.0042 227° Southwest 422 486 22,300 -840 Descending Cleveland Center
02:52PM 41.3142 -79.1436 228° Southwest 429 494 22,000 -180 Descending Cleveland Center
02:53PM 41.2300 -79.2664 228° Southwest 446 513 22,000  Level Cleveland Center
02:54PM 41.1372 -79.3972 227° Southwest 458 527 22,000 -840 Level Cleveland Center
02:55PM 41.0531 -79.5181 227° Southwest 450 518 20,300 -2,820 Descending Cleveland Center
02:56PM 40.9761 -79.6272 227° Southwest 412 474 16,200 -3,720 Descending Cleveland Center
02:57PM 40.9069 -79.7272 228° Southwest 375 432 12,600 -3,120 Descending Cleveland Center
02:58PM 40.8442 -79.8161 227° Southwest 338 389 9,700 -2,280 Descending Cleveland Center
02:59PM 40.7714 -79.8581 204° Southwest 287 330 8,000 -1,800 Descending Cleveland Center
03:00PM 40.6894 -79.9022 202° Southwest 267 307 6,000 -1,020 Descending Cleveland Center
03:01PM 40.6236 -79.9375 202° Southwest 259 298 6,000 -660 Level Cleveland Center
03:02PM 40.5578 -79.9733 202° Southwest 257 296 4,700 -1,500 Descending Cleveland Center
03:03PM 40.4936 -80.0086 203° Southwest 252 290 3,000 -840 Descending Cleveland Center
03:04PM 40.4283 -80.0439 202° Southwest 251 289 3,000  Level Cleveland Center
03:05PM 40.4136 -80.1139 255° West 227 261 3,000 -540 Level Cleveland Center
03:06PM 40.4461 -80.1636 311° West 172 198 1,900 -840 Descending Cleveland Center
03:07PM 40.4725 -80.1956 317° Northwest 145 167 1,300 -600 Descending Cleveland Center
03:09PM 40.4833 -80.2167 270° West  Level FlightAware Approximate